sensor_id;sensor_type;location;lat;lon;timestamp;pressure;altitude;pressure_sealevel;temperature;humidity
80853;BME280;70270;43.434;28.338;2023-10-19T00:01:35;100238.47;;;15.04;59.10
80853;BME280;70270;43.434;28.338;2023-10-19T00:04:22;100227.38;;;14.98;58.83
80853;BME280;70270;43.434;28.338;2023-10-19T00:07:06;100348.06;;;15.62;58.79
80853;BME280;70270;43.434;28.338;2023-10-19T00:09:52;100291.22;;;15.34;59.07
80853;BME280;70270;43.434;28.338;2023-10-19T00:12:38;100331.97;;;15.54;59.15
80853;BME280;70270;43.434;28.338;2023-10-19T00:15:23;100295.63;;;15.35;58.95
80853;BME280;70270;43.434;28.338;2023-10-19T00:18:10;100335.72;;;15.59;59.04
80853;BME280;70270;43.434;28.338;2023-10-19T00:21:00;100338.59;;;15.64;58.97
80853;BME280;70270;43.434;28.338;2023-10-19T00:23:56;100328.88;;;15.68;59.20
80853;BME280;70270;43.434;28.338;2023-10-19T00:26:41;100322.22;;;15.64;58.96
80853;BME280;70270;43.434;28.338;2023-10-19T00:29:26;100320.06;;;15.66;58.83
80853;BME280;70270;43.434;28.338;2023-10-19T00:32:15;100222.09;;;15.04;58.64
80853;BME280;70270;43.434;28.338;2023-10-19T00:35:02;100324.47;;;15.67;58.98
80853;BME280;70270;43.434;28.338;2023-10-19T00:37:54;100300.94;;;15.48;58.60
80853;BME280;70270;43.434;28.338;2023-10-19T00:40:41;100322.22;;;15.64;58.67
80853;BME280;70270;43.434;28.338;2023-10-19T00:43:32;100288.81;;;15.44;58.21
80853;BME280;70270;43.434;28.338;2023-10-19T00:46:19;100320.84;;;15.55;58.35
80853;BME280;70270;43.434;28.338;2023-10-19T00:49:05;100321.56;;;15.44;58.94
80853;BME280;70270;43.434;28.338;2023-10-19T00:51:56;100322.78;;;15.48;58.76
80853;BME280;70270;43.434;28.338;2023-10-19T00:54:57;100317.22;;;15.18;59.67
80853;BME280;70270;43.434;28.338;2023-10-19T00:57:43;100322.81;;;15.05;59.73
80853;BME280;70270;43.434;28.338;2023-10-19T01:00:33;100322.81;;;15.05;59.68
80853;BME280;70270;43.434;28.338;2023-10-19T01:03:19;100322.59;;;15.07;59.91
80853;BME280;70270;43.434;28.338;2023-10-19T01:06:05;100317.88;;;14.95;59.96
80853;BME280;70270;43.434;28.338;2023-10-19T01:08:54;100211.03;;;14.31;60.21
80853;BME280;70270;43.434;28.338;2023-10-19T01:11:39;100313.66;;;14.99;60.19
80853;BME280;70270;43.434;28.338;2023-10-19T01:14:25;100314.19;;;15.08;59.99
80853;BME280;70270;43.434;28.338;2023-10-19T01:17:12;100105.69;;;13.93;59.69
80853;BME280;70270;43.434;28.338;2023-10-19T01:19:56;100317.44;;;15.17;59.99
80853;BME280;70270;43.434;28.338;2023-10-19T01:23:03;100306.53;;;15.17;59.69
80853;BME280;70270;43.434;28.338;2023-10-19T01:25:58;100318.06;;;15.19;59.98
80853;BME280;70270;43.434;28.338;2023-10-19T01:28:43;100309.66;;;15.20;59.45
80853;BME280;70270;43.434;28.338;2023-10-19T01:31:37;100305.59;;;15.05;59.90
80853;BME280;70270;43.434;28.338;2023-10-19T01:34:36;100309.16;;;15.05;60.15
80853;BME280;70270;43.434;28.338;2023-10-19T01:37:21;100278.91;;;14.88;60.53
80853;BME280;70270;43.434;28.338;2023-10-19T01:40:06;100318.66;;;15.03;60.90
80853;BME280;70270;43.434;28.338;2023-10-19T01:42:50;100298.50;;;15.04;60.85
80853;BME280;70270;43.434;28.338;2023-10-19T01:45:35;100302.75;;;14.99;61.00
80853;BME280;70270;43.434;28.338;2023-10-19T01:48:20;100299.09;;;15.06;60.99
80853;BME280;70270;43.434;28.338;2023-10-19T01:51:08;100303.78;;;14.98;61.16
80853;BME280;70270;43.434;28.338;2023-10-19T01:53:59;100298.44;;;14.85;61.32
80853;BME280;70270;43.434;28.338;2023-10-19T01:56:47;100300.41;;;14.78;61.45
80853;BME280;70270;43.434;28.338;2023-10-19T01:59:34;100299.97;;;14.81;61.71
80853;BME280;70270;43.434;28.338;2023-10-19T02:02:19;100302.84;;;14.86;61.25
80853;BME280;70270;43.434;28.338;2023-10-19T02:05:06;100295.50;;;14.87;61.47
80853;BME280;70270;43.434;28.338;2023-10-19T02:07:57;100185.16;;;14.15;61.69
80853;BME280;70270;43.434;28.338;2023-10-19T02:10:46;100299.97;;;14.81;61.06
80853;BME280;70270;43.434;28.338;2023-10-19T02:13:31;100301.22;;;15.04;61.17
80853;BME280;70270;43.434;28.338;2023-10-19T02:16:17;100312.28;;;15.09;61.02
80853;BME280;70270;43.434;28.338;2023-10-19T02:19:06;100303.97;;;15.04;61.26
80853;BME280;70270;43.434;28.338;2023-10-19T02:22:02;100279.81;;;15.00;60.52
80853;BME280;70270;43.434;28.338;2023-10-19T02:24:52;100303.38;;;15.20;60.68
80853;BME280;70270;43.434;28.338;2023-10-19T02:27:37;100150.72;;;14.21;61.26
80853;BME280;70270;43.434;28.338;2023-10-19T02:30:22;100309.03;;;15.18;61.19
80853;BME280;70270;43.434;28.338;2023-10-19T02:33:09;100270.00;;;14.99;61.07
80853;BME280;70270;43.434;28.338;2023-10-19T02:35:53;100260.81;;;14.94;61.60
80853;BME280;70270;43.434;28.338;2023-10-19T02:38:45;100217.81;;;14.71;61.85
80853;BME280;70270;43.434;28.338;2023-10-19T02:41:37;100304.50;;;15.30;61.82
80853;BME280;70270;43.434;28.338;2023-10-19T02:44:22;100306.94;;;15.38;61.29
80853;BME280;70270;43.434;28.338;2023-10-19T02:47:07;100304.41;;;15.37;62.12
80853;BME280;70270;43.434;28.338;2023-10-19T02:49:53;100301.78;;;15.30;61.89
80853;BME280;70270;43.434;28.338;2023-10-19T02:52:40;100300.84;;;15.18;62.58
80853;BME280;70270;43.434;28.338;2023-10-19T02:55:31;100295.47;;;15.12;63.06
80853;BME280;70270;43.434;28.338;2023-10-19T02:58:15;100301.59;;;15.25;62.56
80853;BME280;70270;43.434;28.338;2023-10-19T03:01:00;100293.13;;;15.33;62.67
80853;BME280;70270;43.434;28.338;2023-10-19T03:03:44;100208.72;;;14.77;63.12
80853;BME280;70270;43.434;28.338;2023-10-19T03:06:31;100263.09;;;15.15;62.83
80853;BME280;70270;43.434;28.338;2023-10-19T03:09:18;100289.53;;;15.33;63.62
80853;BME280;70270;43.434;28.338;2023-10-19T03:12:11;100289.78;;;15.31;63.82
80853;BME280;70270;43.434;28.338;2023-10-19T03:14:58;100298.66;;;15.27;64.51
80853;BME280;70270;43.434;28.338;2023-10-19T03:17:44;100205.59;;;14.74;64.32
80853;BME280;70270;43.434;28.338;2023-10-19T03:20:30;100298.38;;;15.35;64.24
80853;BME280;70270;43.434;28.338;2023-10-19T03:23:18;100184.16;;;14.77;63.93
80853;BME280;70270;43.434;28.338;2023-10-19T03:26:02;100290.44;;;15.52;63.57
80853;BME280;70270;43.434;28.338;2023-10-19T03:29:04;100287.28;;;15.48;63.86
80853;BME280;70270;43.434;28.338;2023-10-19T03:31:56;100253.16;;;15.39;64.19
80853;BME280;70270;43.434;28.338;2023-10-19T03:34:40;100287.44;;;15.53;64.52
80853;BME280;70270;43.434;28.338;2023-10-19T03:37:30;100282.75;;;15.60;64.04
80853;BME280;70270;43.434;28.338;2023-10-19T03:40:15;100263.75;;;15.65;63.92
80853;BME280;70270;43.434;28.338;2023-10-19T03:43:04;100288.88;;;15.74;63.93
80853;BME280;70270;43.434;28.338;2023-10-19T03:45:58;100271.78;;;15.78;63.80
80853;BME280;70270;43.434;28.338;2023-10-19T03:48:44;100236.44;;;15.65;63.87
80853;BME280;70270;43.434;28.338;2023-10-19T03:51:30;100261.59;;;15.85;63.10
80853;BME280;70270;43.434;28.338;2023-10-19T03:54:25;100243.88;;;15.76;63.23
80853;BME280;70270;43.434;28.338;2023-10-19T03:57:14;100206.72;;;15.57;63.29
80853;BME280;70270;43.434;28.338;2023-10-19T04:00:03;100224.13;;;15.74;63.56
80853;BME280;70270;43.434;28.338;2023-10-19T04:03:08;100257.56;;;15.88;63.54
80853;BME280;70270;43.434;28.338;2023-10-19T04:05:53;100252.66;;;15.78;64.43
80853;BME280;70270;43.434;28.338;2023-10-19T04:08:37;100212.34;;;15.44;64.72
80853;BME280;70270;43.434;28.338;2023-10-19T04:11:22;100258.25;;;15.54;64.84
80853;BME280;70270;43.434;28.338;2023-10-19T04:14:07;100254.50;;;15.66;64.53
80853;BME280;70270;43.434;28.338;2023-10-19T04:16:53;100263.22;;;15.75;64.50
80853;BME280;70270;43.434;28.338;2023-10-19T04:19:37;100252.72;;;15.60;65.00
80853;BME280;70270;43.434;28.338;2023-10-19T04:22:23;100254.66;;;15.53;65.41
80853;BME280;70270;43.434;28.338;2023-10-19T04:25:07;100123.84;;;14.85;65.13
80853;BME280;70270;43.434;28.338;2023-10-19T04:27:53;100169.09;;;15.11;64.58
80853;BME280;70270;43.434;28.338;2023-10-19T04:30:37;100239.06;;;15.60;64.59
80853;BME280;70270;43.434;28.338;2023-10-19T04:33:21;100257.91;;;15.80;63.56
80853;BME280;70270;43.434;28.338;2023-10-19T04:36:09;100264.22;;;15.80;63.45
80853;BME280;70270;43.434;28.338;2023-10-19T04:38:55;100261.84;;;15.84;63.66
80853;BME280;70270;43.434;28.338;2023-10-19T04:41:40;100272.09;;;15.70;64.33
80853;BME280;70270;43.434;28.338;2023-10-19T04:44:25;100270.00;;;15.72;64.46
80853;BME280;70270;43.434;28.338;2023-10-19T04:47:10;100283.19;;;15.75;64.00
80853;BME280;70270;43.434;28.338;2023-10-19T04:49:56;100248.59;;;15.33;65.10
80853;BME280;70270;43.434;28.338;2023-10-19T04:52:41;100159.41;;;14.79;64.78
80853;BME280;70270;43.434;28.338;2023-10-19T04:55:25;100270.16;;;15.59;64.52
80853;BME280;70270;43.434;28.338;2023-10-19T04:58:12;100275.63;;;15.59;64.55
80853;BME280;70270;43.434;28.338;2023-10-19T05:00:56;100259.53;;;15.51;64.85
80853;BME280;70270;43.434;28.338;2023-10-19T05:03:43;100276.81;;;15.63;65.10
80853;BME280;70270;43.434;28.338;2023-10-19T05:06:27;100256.34;;;15.54;64.67
80853;BME280;70270;43.434;28.338;2023-10-19T05:09:11;100181.28;;;15.09;65.02
80853;BME280;70270;43.434;28.338;2023-10-19T05:11:55;100283.69;;;15.84;64.64
80853;BME280;70270;43.434;28.338;2023-10-19T05:14:42;100272.31;;;15.87;64.49
80853;BME280;70270;43.434;28.338;2023-10-19T05:17:26;100293.50;;;16.03;63.92
80853;BME280;70270;43.434;28.338;2023-10-19T05:20:11;100290.81;;;16.15;64.13
80853;BME280;70270;43.434;28.338;2023-10-19T05:22:55;100281.31;;;16.17;63.71
80853;BME280;70270;43.434;28.338;2023-10-19T05:25:42;100286.06;;;16.22;63.76
80853;BME280;70270;43.434;28.338;2023-10-19T05:28:26;100289.78;;;16.27;64.35
80853;BME280;70270;43.434;28.338;2023-10-19T05:31:11;100307.44;;;16.43;63.84
80853;BME280;70270;43.434;28.338;2023-10-19T05:33:56;100158.38;;;15.28;63.85
80853;BME280;70270;43.434;28.338;2023-10-19T05:36:40;100303.34;;;16.34;63.41
80853;BME280;70270;43.434;28.338;2023-10-19T05:39:28;100187.00;;;15.37;64.14
80853;BME280;70270;43.434;28.338;2023-10-19T05:42:13;100308.28;;;16.14;64.69
80853;BME280;70270;43.434;28.338;2023-10-19T05:44:58;100301.75;;;16.15;64.76
80853;BME280;70270;43.434;28.338;2023-10-19T05:47:43;100262.53;;;15.79;65.54
80853;BME280;70270;43.434;28.338;2023-10-19T05:50:28;100303.53;;;16.21;65.72
80853;BME280;70270;43.434;28.338;2023-10-19T05:53:12;100294.88;;;16.65;64.96
80853;BME280;70270;43.434;28.338;2023-10-19T05:55:58;100290.72;;;16.98;63.95
80853;BME280;70270;43.434;28.338;2023-10-19T05:58:45;100294.41;;;17.26;63.23
80853;BME280;70270;43.434;28.338;2023-10-19T06:01:33;100291.88;;;17.48;62.27
80853;BME280;70270;43.434;28.338;2023-10-19T06:04:17;100307.81;;;17.51;61.93
80853;BME280;70270;43.434;28.338;2023-10-19T06:07:02;100288.75;;;17.56;62.33
80853;BME280;70270;43.434;28.338;2023-10-19T06:09:46;100281.16;;;17.35;62.47
80853;BME280;70270;43.434;28.338;2023-10-19T06:12:31;100270.28;;;17.52;62.46
80853;BME280;70270;43.434;28.338;2023-10-19T06:15:18;100307.31;;;17.54;63.00
80853;BME280;70270;43.434;28.338;2023-10-19T06:18:02;100297.63;;;17.87;62.39
80853;BME280;70270;43.434;28.338;2023-10-19T06:20:47;100297.38;;;17.88;62.58
80853;BME280;70270;43.434;28.338;2023-10-19T06:23:34;100284.91;;;17.81;61.49
80853;BME280;70270;43.434;28.338;2023-10-19T06:26:19;100258.91;;;17.31;62.58
80853;BME280;70270;43.434;28.338;2023-10-19T06:29:04;100288.63;;;17.63;62.87
80853;BME280;70270;43.434;28.338;2023-10-19T06:31:49;100298.88;;;17.56;62.23
80853;BME280;70270;43.434;28.338;2023-10-19T06:34:33;100293.78;;;17.48;61.82
80853;BME280;70270;43.434;28.338;2023-10-19T06:37:18;100294.41;;;17.26;61.81
80853;BME280;70270;43.434;28.338;2023-10-19T06:40:03;100307.63;;;17.18;63.36
80853;BME280;70270;43.434;28.338;2023-10-19T06:42:50;100291.19;;;17.18;64.03
80853;BME280;70270;43.434;28.338;2023-10-19T06:45:35;100257.38;;;17.24;62.40
80853;BME280;70270;43.434;28.338;2023-10-19T06:48:19;100283.16;;;17.51;58.62
80853;BME280;70270;43.434;28.338;2023-10-19T06:51:04;100296.16;;;17.44;57.97
80853;BME280;70270;43.434;28.338;2023-10-19T06:53:49;100284.84;;;17.52;57.81
80853;BME280;70270;43.434;28.338;2023-10-19T06:56:34;100151.25;;;16.91;56.86
80853;BME280;70270;43.434;28.338;2023-10-19T06:59:21;100300.06;;;17.71;56.09
80853;BME280;70270;43.434;28.338;2023-10-19T07:02:05;100296.44;;;18.11;56.70
80853;BME280;70270;43.434;28.338;2023-10-19T07:04:51;100278.03;;;18.40;55.78
80853;BME280;70270;43.434;28.338;2023-10-19T07:07:45;100291.31;;;18.31;54.63
80853;BME280;70270;43.434;28.338;2023-10-19T07:10:30;100285.19;;;18.41;53.28
80853;BME280;70270;43.434;28.338;2023-10-19T07:13:15;100175.22;;;17.52;53.36
80853;BME280;70270;43.434;28.338;2023-10-19T07:16:00;100290.28;;;18.04;54.42
80853;BME280;70270;43.434;28.338;2023-10-19T07:18:44;100280.81;;;18.11;54.67
80853;BME280;70270;43.434;28.338;2023-10-19T07:21:29;100118.44;;;17.48;54.13
80853;BME280;70270;43.434;28.338;2023-10-19T07:24:16;100243.72;;;18.37;53.18
80853;BME280;70270;43.434;28.338;2023-10-19T07:27:03;100264.75;;;18.48;52.89
80853;BME280;70270;43.434;28.338;2023-10-19T07:29:48;100275.94;;;18.30;54.15
80853;BME280;70270;43.434;28.338;2023-10-19T07:32:33;100283.34;;;18.46;54.10
80853;BME280;70270;43.434;28.338;2023-10-19T07:35:18;100256.38;;;18.55;53.96
80853;BME280;70270;43.434;28.338;2023-10-19T07:38:03;100171.91;;;17.50;54.93
80853;BME280;70270;43.434;28.338;2023-10-19T07:40:49;100236.50;;;18.03;55.82
80853;BME280;70270;43.434;28.338;2023-10-19T07:43:36;100283.75;;;18.38;56.30
80853;BME280;70270;43.434;28.338;2023-10-19T07:46:21;100159.31;;;18.11;54.95
80853;BME280;70270;43.434;28.338;2023-10-19T07:49:07;100262.44;;;18.74;54.84
80853;BME280;70270;43.434;28.338;2023-10-19T07:51:51;100266.97;;;18.51;55.30
80853;BME280;70270;43.434;28.338;2023-10-19T07:54:36;100269.72;;;18.35;56.03
80853;BME280;70270;43.434;28.338;2023-10-19T07:57:21;100159.28;;;17.77;56.59
80853;BME280;70270;43.434;28.338;2023-10-19T08:00:06;100151.34;;;17.93;55.58
80853;BME280;70270;43.434;28.338;2023-10-19T08:02:54;100127.13;;;17.90;55.45
80853;BME280;70270;43.434;28.338;2023-10-19T08:05:39;100152.09;;;18.05;54.73
80853;BME280;70270;43.434;28.338;2023-10-19T08:08:23;100261.41;;;18.96;55.47
80853;BME280;70270;43.434;28.338;2023-10-19T08:11:08;100260.41;;;18.86;58.61
80853;BME280;70270;43.434;28.338;2023-10-19T08:13:53;100273.44;;;18.74;60.25
80853;BME280;70270;43.434;28.338;2023-10-19T08:16:39;100264.69;;;19.15;60.63
80853;BME280;70270;43.434;28.338;2023-10-19T08:19:27;100263.03;;;19.14;61.09
80853;BME280;70270;43.434;28.338;2023-10-19T08:22:12;100268.25;;;19.32;61.35
80853;BME280;70270;43.434;28.338;2023-10-19T08:24:58;100269.16;;;19.59;61.13
80853;BME280;70270;43.434;28.338;2023-10-19T08:27:44;100259.53;;;19.18;61.26
80853;BME280;70270;43.434;28.338;2023-10-19T08:30:29;100145.69;;;18.16;57.20
80853;BME280;70270;43.434;28.338;2023-10-19T08:33:14;100259.06;;;18.38;57.43
80853;BME280;70270;43.434;28.338;2023-10-19T08:35:58;100243.97;;;18.52;57.40
80853;BME280;70270;43.434;28.338;2023-10-19T08:38:44;100234.97;;;18.23;60.53
80853;BME280;70270;43.434;28.338;2023-10-19T08:41:28;100252.59;;;18.28;61.86
80853;BME280;70270;43.434;28.338;2023-10-19T08:44:13;100263.31;;;18.29;62.23
80853;BME280;70270;43.434;28.338;2023-10-19T08:47:01;100131.78;;;17.44;62.30
80853;BME280;70270;43.434;28.338;2023-10-19T08:49:46;100273.31;;;18.07;61.00
80853;BME280;70270;43.434;28.338;2023-10-19T08:52:32;100257.16;;;17.94;60.75
80853;BME280;70270;43.434;28.338;2023-10-19T08:55:17;100257.25;;;18.27;59.57
80853;BME280;70270;43.434;28.338;2023-10-19T08:58:04;100259.66;;;18.40;59.31
80853;BME280;70270;43.434;28.338;2023-10-19T09:00:50;100271.03;;;18.15;60.25
80853;BME280;70270;43.434;28.338;2023-10-19T09:03:38;100251.97;;;18.25;60.44
80853;BME280;70270;43.434;28.338;2023-10-19T09:06:23;100221.25;;;17.78;61.82
80853;BME280;70270;43.434;28.338;2023-10-19T09:11:53;100254.03;;;18.02;63.69
80853;BME280;70270;43.434;28.338;2023-10-19T09:14:38;100213.00;;;18.07;63.76
80853;BME280;70270;43.434;28.338;2023-10-19T09:17:30;100232.50;;;17.94;64.58
80853;BME280;70270;43.434;28.338;2023-10-19T09:20:16;100121.56;;;17.11;65.25
80853;BME280;70270;43.434;28.338;2023-10-19T09:23:12;100233.34;;;18.11;65.26
80853;BME280;70270;43.434;28.338;2023-10-19T09:25:58;100192.53;;;17.98;64.13
80853;BME280;70270;43.434;28.338;2023-10-19T09:28:48;100239.84;;;18.38;62.76
80853;BME280;70270;43.434;28.338;2023-10-19T09:31:32;100034.66;;;17.35;63.34
80853;BME280;70270;43.434;28.338;2023-10-19T09:34:17;100230.19;;;18.86;63.40
80853;BME280;70270;43.434;28.338;2023-10-19T09:37:03;100206.03;;;18.49;64.40
80853;BME280;70270;43.434;28.338;2023-10-19T09:39:47;100214.63;;;18.69;64.77
80853;BME280;70270;43.434;28.338;2023-10-19T09:42:32;100214.00;;;19.06;63.88
80853;BME280;70270;43.434;28.338;2023-10-19T09:45:19;100204.94;;;18.84;63.66
80853;BME280;70270;43.434;28.338;2023-10-19T09:48:05;100231.31;;;18.85;64.22
80853;BME280;70270;43.434;28.338;2023-10-19T09:50:55;100219.00;;;18.70;63.74
80853;BME280;70270;43.434;28.338;2023-10-19T09:53:45;100226.91;;;18.84;63.73
80853;BME280;70270;43.434;28.338;2023-10-19T09:56:36;100165.16;;;19.08;62.87
80853;BME280;70270;43.434;28.338;2023-10-19T09:59:29;100159.16;;;19.11;62.74
80853;BME280;70270;43.434;28.338;2023-10-19T10:02:16;100151.69;;;19.28;62.24
80853;BME280;70270;43.434;28.338;2023-10-19T10:05:02;100177.69;;;19.42;63.06
80853;BME280;70270;43.434;28.338;2023-10-19T10:11:20;100174.28;;;19.35;63.90
80853;BME280;70270;43.434;28.338;2023-10-19T10:14:20;100172.19;;;19.42;64.18
80853;BME280;70270;43.434;28.338;2023-10-19T10:17:06;100177.09;;;19.89;62.46
80853;BME280;70270;43.434;28.338;2023-10-19T10:19:54;100058.59;;;19.10;62.65
80853;BME280;70270;43.434;28.338;2023-10-19T10:22:41;100171.59;;;19.40;63.92
80853;BME280;70270;43.434;28.338;2023-10-19T10:25:29;100156.59;;;19.26;64.00
80853;BME280;70270;43.434;28.338;2023-10-19T10:28:14;100134.63;;;19.48;63.27
80853;BME280;70270;43.434;28.338;2023-10-19T10:31:18;100042.06;;;18.56;64.10
80853;BME280;70270;43.434;28.338;2023-10-19T10:34:04;100158.72;;;19.19;63.05
80853;BME280;70270;43.434;28.338;2023-10-19T10:37:03;100157.19;;;19.77;61.39
80853;BME280;70270;43.434;28.338;2023-10-19T10:39:47;100138.94;;;19.97;60.67
80853;BME280;70270;43.434;28.338;2023-10-19T10:42:33;100110.88;;;19.42;60.75
80853;BME280;70270;43.434;28.338;2023-10-19T10:45:19;100053.09;;;18.83;62.41
80853;BME280;70270;43.434;28.338;2023-10-19T10:48:18;100145.28;;;19.23;62.83
80853;BME280;70270;43.434;28.338;2023-10-19T10:51:23;100023.25;;;18.92;61.09
80853;BME280;70270;43.434;28.338;2023-10-19T10:54:08;100131.47;;;19.61;61.68
80853;BME280;70270;43.434;28.338;2023-10-19T10:56:53;100145.75;;;19.63;60.79
80853;BME280;70270;43.434;28.338;2023-10-19T10:59:37;100111.53;;;19.27;62.73
80853;BME280;70270;43.434;28.338;2023-10-19T11:02:22;100118.25;;;19.36;62.05
80853;BME280;70270;43.434;28.338;2023-10-19T11:05:07;100002.31;;;18.86;61.08
80853;BME280;70270;43.434;28.338;2023-10-19T11:08:10;99946.59;;;18.85;60.06
80853;BME280;70270;43.434;28.338;2023-10-19T11:11:02;100103.97;;;19.61;60.64
80853;BME280;70270;43.434;28.338;2023-10-19T11:13:48;100000.41;;;18.86;61.38
80853;BME280;70270;43.434;28.338;2023-10-19T11:16:33;100102.91;;;19.13;59.42
80853;BME280;70270;43.434;28.338;2023-10-19T11:19:17;100092.78;;;19.19;58.73
80853;BME280;70270;43.434;28.338;2023-10-19T11:22:01;100102.69;;;19.20;61.33
80853;BME280;70270;43.434;28.338;2023-10-19T11:24:46;100076.00;;;19.42;61.40
80853;BME280;70270;43.434;28.338;2023-10-19T11:27:31;99960.03;;;18.60;61.34
80853;BME280;70270;43.434;28.338;2023-10-19T11:30:26;100065.25;;;19.41;60.89
80853;BME280;70270;43.434;28.338;2023-10-19T11:33:11;100077.28;;;19.35;61.03
80853;BME280;70270;43.434;28.338;2023-10-19T11:35:56;100064.84;;;19.27;61.44
80853;BME280;70270;43.434;28.338;2023-10-19T11:38:43;100073.47;;;19.14;62.82
80853;BME280;70270;43.434;28.338;2023-10-19T11:41:28;100058.94;;;19.40;61.80
80853;BME280;70270;43.434;28.338;2023-10-19T11:44:14;100066.91;;;19.69;61.96
80853;BME280;70270;43.434;28.338;2023-10-19T11:46:58;100076.78;;;19.38;61.98
80853;BME280;70270;43.434;28.338;2023-10-19T11:49:42;100070.47;;;19.15;62.10
80853;BME280;70270;43.434;28.338;2023-10-19T11:52:27;99911.50;;;18.17;62.34
80853;BME280;70270;43.434;28.338;2023-10-19T11:55:14;100061.94;;;19.39;61.48
80853;BME280;70270;43.434;28.338;2023-10-19T11:57:59;99819.41;;;17.77;61.96
80853;BME280;70270;43.434;28.338;2023-10-19T12:00:44;99924.72;;;18.68;61.05
80853;BME280;70270;43.434;28.338;2023-10-19T12:03:31;100075.03;;;19.53;61.12
80853;BME280;70270;43.434;28.338;2023-10-19T12:06:16;100052.94;;;19.43;62.28
80853;BME280;70270;43.434;28.338;2023-10-19T12:09:04;100028.34;;;19.32;61.44
80853;BME280;70270;43.434;28.338;2023-10-19T12:11:58;100058.38;;;19.70;60.51
80853;BME280;70270;43.434;28.338;2023-10-19T12:14:43;100031.19;;;19.69;59.89
80853;BME280;70270;43.434;28.338;2023-10-19T12:17:28;100054.97;;;19.85;59.38
80853;BME280;70270;43.434;28.338;2023-10-19T12:20:14;99931.16;;;19.11;59.84
80853;BME280;70270;43.434;28.338;2023-10-19T12:22:58;100062.09;;;19.54;60.10
80853;BME280;70270;43.434;28.338;2023-10-19T12:25:43;100037.16;;;19.60;60.51
80853;BME280;70270;43.434;28.338;2023-10-19T12:28:27;100048.34;;;19.54;61.20
80853;BME280;70270;43.434;28.338;2023-10-19T12:31:12;100043.69;;;19.54;61.34
80853;BME280;70270;43.434;28.338;2023-10-19T12:33:56;100048.53;;;19.74;60.50
80853;BME280;70270;43.434;28.338;2023-10-19T12:36:41;100053.53;;;19.50;61.04
80853;BME280;70270;43.434;28.338;2023-10-19T12:39:25;100050.03;;;19.55;61.82
80853;BME280;70270;43.434;28.338;2023-10-19T12:42:31;100029.19;;;19.32;62.75
80853;BME280;70270;43.434;28.338;2023-10-19T12:45:15;99952.84;;;19.07;62.19
80853;BME280;70270;43.434;28.338;2023-10-19T12:48:04;100012.91;;;19.52;61.77
80853;BME280;70270;43.434;28.338;2023-10-19T12:50:48;100031.59;;;19.55;62.47
80853;BME280;70270;43.434;28.338;2023-10-19T12:53:33;100022.94;;;19.15;63.20
80853;BME280;70270;43.434;28.338;2023-10-19T12:56:20;100022.88;;;19.05;63.72
80853;BME280;70270;43.434;28.338;2023-10-19T12:59:05;99985.97;;;18.96;64.62
80853;BME280;70270;43.434;28.338;2023-10-19T13:01:50;99967.47;;;19.18;64.13
80853;BME280;70270;43.434;28.338;2023-10-19T13:04:38;99869.88;;;18.74;63.82
80853;BME280;70270;43.434;28.338;2023-10-19T13:07:25;99854.59;;;18.34;64.94
80853;BME280;70270;43.434;28.338;2023-10-19T13:10:10;100012.63;;;18.52;66.70
80853;BME280;70270;43.434;28.338;2023-10-19T13:13:02;100005.03;;;18.81;66.65
80853;BME280;70270;43.434;28.338;2023-10-19T13:15:50;99996.31;;;19.15;65.51
80853;BME280;70270;43.434;28.338;2023-10-19T13:18:35;99969.38;;;19.12;64.92
80853;BME280;70270;43.434;28.338;2023-10-19T13:21:20;99861.00;;;18.66;64.95
80853;BME280;70270;43.434;28.338;2023-10-19T13:24:12;99835.09;;;18.04;65.29
80853;BME280;70270;43.434;28.338;2023-10-19T13:26:57;100006.00;;;19.23;65.02
80853;BME280;70270;43.434;28.338;2023-10-19T13:29:42;99988.47;;;18.97;65.25
80853;BME280;70270;43.434;28.338;2023-10-19T13:32:29;99852.28;;;18.21;65.52
80853;BME280;70270;43.434;28.338;2023-10-19T13:35:15;99962.88;;;19.24;65.24
80853;BME280;70270;43.434;28.338;2023-10-19T13:38:00;99947.56;;;19.65;63.62
80853;BME280;70270;43.434;28.338;2023-10-19T13:40:45;99973.59;;;19.52;63.01
80853;BME280;70270;43.434;28.338;2023-10-19T13:43:29;99912.53;;;18.38;66.15
80853;BME280;70270;43.434;28.338;2023-10-19T13:46:14;99979.94;;;18.99;64.89
80853;BME280;70270;43.434;28.338;2023-10-19T13:48:59;99931.88;;;18.69;66.45
80853;BME280;70270;43.434;28.338;2023-10-19T13:51:47;99961.00;;;18.97;65.37
80853;BME280;70270;43.434;28.338;2023-10-19T13:54:31;99851.56;;;18.52;65.85
80853;BME280;70270;43.434;28.338;2023-10-19T13:57:16;99961.19;;;18.91;65.21
80853;BME280;70270;43.434;28.338;2023-10-19T14:00:00;99843.75;;;18.44;63.04
80853;BME280;70270;43.434;28.338;2023-10-19T14:02:46;99920.31;;;19.26;64.96
80853;BME280;70270;43.434;28.338;2023-10-19T14:05:40;99820.94;;;18.65;63.98
80853;BME280;70270;43.434;28.338;2023-10-19T14:08:27;99920.31;;;19.26;62.72
80853;BME280;70270;43.434;28.338;2023-10-19T14:11:12;99911.69;;;19.44;61.88
80853;BME280;70270;43.434;28.338;2023-10-19T14:13:56;99913.22;;;19.67;61.96
80853;BME280;70270;43.434;28.338;2023-10-19T14:16:40;99892.41;;;19.07;62.71
80853;BME280;70270;43.434;28.338;2023-10-19T14:19:25;99810.47;;;18.36;61.84
80853;BME280;70270;43.434;28.338;2023-10-19T14:22:09;99907.59;;;19.15;60.74
80853;BME280;70270;43.434;28.338;2023-10-19T14:24:54;99892.38;;;19.39;60.89
80853;BME280;70270;43.434;28.338;2023-10-19T14:27:44;99779.59;;;18.50;61.58